sensor_id;sensor_type;location;lat;lon;timestamp;P1;durP1;ratioP1;P2;durP2;ratioP2
57609;SDS011;43435;46.186;9.024;2023-02-08T11:42:16;19.73;;;11.52;;
57609;SDS011;43435;46.186;9.024;2023-02-08T11:44:43;18.42;;;10.60;;
57609;SDS011;43435;46.186;9.024;2023-02-08T11:47:10;17.73;;;10.35;;
57609;SDS011;43435;46.186;9.024;2023-02-08T11:49:42;18.27;;;10.05;;
57609;SDS011;43435;46.186;9.024;2023-02-08T11:52:18;16.48;;;10.38;;
57609;SDS011;43435;46.186;9.024;2023-02-08T11:54:44;23.27;;;10.93;;
57609;SDS011;43435;46.186;9.024;2023-02-08T11:57:11;19.85;;;11.65;;
57609;SDS011;43435;46.186;9.024;2023-02-08T11:59:37;17.70;;;10.65;;
57609;SDS011;43435;46.186;9.024;2023-02-08T12:04:46;17.52;;;10.50;;
57609;SDS011;43435;46.186;9.024;2023-02-08T12:07:16;17.43;;;9.40;;
57609;SDS011;43435;46.186;9.024;2023-02-08T12:09:56;16.95;;;10.27;;
57609;SDS011;43435;46.186;9.024;2023-02-08T12:12:45;18.08;;;10.45;;
57609;SDS011;43435;46.186;9.024;2023-02-08T12:17:45;21.08;;;10.75;;
57609;SDS011;43435;46.186;9.024;2023-02-08T12:23:38;19.40;;;10.65;;
57609;SDS011;43435;46.186;9.024;2023-02-08T12:28:08;16.70;;;10.13;;
57609;SDS011;43435;46.186;9.024;2023-02-08T12:30:43;18.67;;;10.75;;
57609;SDS011;43435;46.186;9.024;2023-02-08T12:33:14;19.48;;;11.35;;
57609;SDS011;43435;46.186;9.024;2023-02-08T12:35:52;17.77;;;11.10;;
57609;SDS011;43435;46.186;9.024;2023-02-08T12:38:26;19.75;;;9.48;;
57609;SDS011;43435;46.186;9.024;2023-02-08T12:41:28;18.90;;;10.85;;
57609;SDS011;43435;46.186;9.024;2023-02-08T12:49:15;17.08;;;9.93;;
57609;SDS011;43435;46.186;9.024;2023-02-08T12:54:34;20.13;;;10.35;;
57609;SDS011;43435;46.186;9.024;2023-02-08T12:57:03;17.15;;;10.48;;
57609;SDS011;43435;46.186;9.024;2023-02-08T14:44:57;15.13;;;8.88;;
57609;SDS011;43435;46.186;9.024;2023-02-08T14:49:48;16.53;;;9.40;;
57609;SDS011;43435;46.186;9.024;2023-02-08T14:52:20;13.55;;;8.48;;
57609;SDS011;43435;46.186;9.024;2023-02-08T14:54:48;14.52;;;9.13;;
57609;SDS011;43435;46.186;9.024;2023-02-08T14:57:57;16.75;;;9.73;;
57609;SDS011;43435;46.186;9.024;2023-02-08T15:00:04;17.05;;;9.48;;
57609;SDS011;43435;46.186;9.024;2023-02-08T15:02:30;16.10;;;8.95;;
57609;SDS011;43435;46.186;9.024;2023-02-08T15:04:56;18.00;;;10.02;;
57609;SDS011;43435;46.186;9.024;2023-02-08T15:07:33;15.82;;;9.15;;
57609;SDS011;43435;46.186;9.024;2023-02-08T15:10:02;17.25;;;9.38;;
57609;SDS011;43435;46.186;9.024;2023-02-08T15:12:29;20.13;;;10.43;;
57609;SDS011;43435;46.186;9.024;2023-02-08T15:14:57;18.58;;;9.13;;
57609;SDS011;43435;46.186;9.024;2023-02-08T15:20:08;18.10;;;9.10;;
57609;SDS011;43435;46.186;9.024;2023-02-08T15:22:40;15.90;;;9.32;;
57609;SDS011;43435;46.186;9.024;2023-02-08T15:27:47;15.70;;;9.40;;
57609;SDS011;43435;46.186;9.024;2023-02-08T15:32:57;16.77;;;8.70;;
57609;SDS011;43435;46.186;9.024;2023-02-08T15:35:23;13.45;;;8.63;;
57609;SDS011;43435;46.186;9.024;2023-02-08T15:37:50;15.32;;;9.07;;
57609;SDS011;43435;46.186;9.024;2023-02-08T15:40:26;13.85;;;8.48;;
57609;SDS011;43435;46.186;9.024;2023-02-08T15:42:51;18.63;;;9.20;;
57609;SDS011;43435;46.186;9.024;2023-02-08T15:45:24;16.20;;;8.70;;
57609;SDS011;43435;46.186;9.024;2023-02-08T15:47:49;15.32;;;8.48;;
57609;SDS011;43435;46.186;9.024;2023-02-08T15:50:18;16.75;;;8.48;;
57609;SDS011;43435;46.186;9.024;2023-02-08T15:52:44;17.55;;;8.40;;
57609;SDS011;43435;46.186;9.024;2023-02-08T15:55:16;17.60;;;8.65;;
57609;SDS011;43435;46.186;9.024;2023-02-08T19:30:30;24.08;;;11.23;;
57609;SDS011;43435;46.186;9.024;2023-02-08T19:32:55;21.57;;;12.17;;
57609;SDS011;43435;46.186;9.024;2023-02-08T19:35:21;20.45;;;11.50;;
57609;SDS011;43435;46.186;9.024;2023-02-08T19:37:46;19.70;;;10.77;;
57609;SDS011;43435;46.186;9.024;2023-02-08T19:40:13;22.85;;;11.98;;
57609;SDS011;43435;46.186;9.024;2023-02-08T19:42:38;23.65;;;11.93;;
57609;SDS011;43435;46.186;9.024;2023-02-08T19:45:04;22.13;;;12.20;;
57609;SDS011;43435;46.186;9.024;2023-02-08T19:47:29;20.65;;;12.13;;
57609;SDS011;43435;46.186;9.024;2023-02-08T19:49:54;22.07;;;11.30;;
57609;SDS011;43435;46.186;9.024;2023-02-08T19:52:19;22.05;;;12.07;;
57609;SDS011;43435;46.186;9.024;2023-02-08T19:54:45;19.23;;;12.27;;
57609;SDS011;43435;46.186;9.024;2023-02-08T19:57:10;22.73;;;13.18;;
57609;SDS011;43435;46.186;9.024;2023-02-08T19:59:38;24.08;;;13.52;;
57609;SDS011;43435;46.186;9.024;2023-02-08T20:02:03;23.27;;;13.20;;
57609;SDS011;43435;46.186;9.024;2023-02-08T20:04:30;23.20;;;12.75;;
57609;SDS011;43435;46.186;9.024;2023-02-08T20:06:55;22.63;;;13.40;;
57609;SDS011;43435;46.186;9.024;2023-02-08T20:09:21;22.53;;;12.33;;
57609;SDS011;43435;46.186;9.024;2023-02-08T20:11:46;26.33;;;13.83;;
57609;SDS011;43435;46.186;9.024;2023-02-08T20:14:13;21.88;;;11.77;;
57609;SDS011;43435;46.186;9.024;2023-02-08T20:16:38;22.13;;;11.53;;
57609;SDS011;43435;46.186;9.024;2023-02-08T20:19:03;23.52;;;13.55;;
57609;SDS011;43435;46.186;9.024;2023-02-08T20:21:29;22.60;;;11.63;;
57609;SDS011;43435;46.186;9.024;2023-02-08T20:23:54;23.42;;;14.25;;
57609;SDS011;43435;46.186;9.024;2023-02-08T20:26:23;24.88;;;12.40;;
57609;SDS011;43435;46.186;9.024;2023-02-08T20:28:56;19.73;;;10.82;;
57609;SDS011;43435;46.186;9.024;2023-02-08T20:31:23;22.85;;;12.27;;
57609;SDS011;43435;46.186;9.024;2023-02-08T20:33:48;22.48;;;13.00;;
57609;SDS011;43435;46.186;9.024;2023-02-08T20:36:15;27.40;;;11.73;;
57609;SDS011;43435;46.186;9.024;2023-02-08T20:38:41;28.45;;;12.05;;
57609;SDS011;43435;46.186;9.024;2023-02-08T20:41:07;16.65;;;10.57;;
57609;SDS011;43435;46.186;9.024;2023-02-08T20:43:33;22.83;;;11.50;;
57609;SDS011;43435;46.186;9.024;2023-02-08T20:45:59;32.15;;;15.25;;
57609;SDS011;43435;46.186;9.024;2023-02-08T20:48:25;30.60;;;15.00;;
57609;SDS011;43435;46.186;9.024;2023-02-08T20:50:50;31.23;;;17.03;;
57609;SDS011;43435;46.186;9.024;2023-02-08T20:53:15;24.40;;;12.90;;
57609;SDS011;43435;46.186;9.024;2023-02-08T20:55:40;26.00;;;13.47;;
57609;SDS011;43435;46.186;9.024;2023-02-08T20:58:05;20.65;;;11.65;;
57609;SDS011;43435;46.186;9.024;2023-02-08T21:00:31;19.02;;;10.82;;
57609;SDS011;43435;46.186;9.024;2023-02-08T21:02:56;17.25;;;10.55;;
57609;SDS011;43435;46.186;9.024;2023-02-08T21:05:21;16.57;;;9.20;;
57609;SDS011;43435;46.186;9.024;2023-02-08T21:07:46;19.10;;;10.70;;
57609;SDS011;43435;46.186;9.024;2023-02-08T21:10:11;23.80;;;11.37;;
57609;SDS011;43435;46.186;9.024;2023-02-08T21:12:37;20.43;;;11.10;;
57609;SDS011;43435;46.186;9.024;2023-02-08T21:15:02;25.80;;;12.00;;
57609;SDS011;43435;46.186;9.024;2023-02-08T21:17:27;20.02;;;10.88;;
57609;SDS011;43435;46.186;9.024;2023-02-08T21:19:54;17.55;;;10.43;;
57609;SDS011;43435;46.186;9.024;2023-02-08T21:22:19;20.15;;;10.18;;
57609;SDS011;43435;46.186;9.024;2023-02-08T21:24:44;19.23;;;10.95;;
57609;SDS011;43435;46.186;9.024;2023-02-08T21:27:09;20.83;;;10.13;;
57609;SDS011;43435;46.186;9.024;2023-02-08T21:29:35;18.27;;;10.90;;
57609;SDS011;43435;46.186;9.024;2023-02-08T21:32:00;18.73;;;9.80;;
57609;SDS011;43435;46.186;9.024;2023-02-08T21:34:25;25.93;;;10.67;;
57609;SDS011;43435;46.186;9.024;2023-02-08T21:36:51;22.33;;;11.02;;
57609;SDS011;43435;46.186;9.024;2023-02-08T21:39:16;20.70;;;10.25;;
57609;SDS011;43435;46.186;9.024;2023-02-08T21:41:41;21.90;;;11.90;;
57609;SDS011;43435;46.186;9.024;2023-02-08T21:44:06;21.03;;;11.20;;
57609;SDS011;43435;46.186;9.024;2023-02-08T21:46:33;23.83;;;11.95;;
57609;SDS011;43435;46.186;9.024;2023-02-08T21:48:58;20.95;;;11.10;;
57609;SDS011;43435;46.186;9.024;2023-02-08T21:51:42;24.00;;;11.20;;
57609;SDS011;43435;46.186;9.024;2023-02-08T21:54:27;23.30;;;11.77;;
57609;SDS011;43435;46.186;9.024;2023-02-08T21:57:16;22.70;;;11.85;;
57609;SDS011;43435;46.186;9.024;2023-02-08T22:02:17;21.30;;;11.48;;
57609;SDS011;43435;46.186;9.024;2023-02-08T22:07:37;19.80;;;10.88;;
57609;SDS011;43435;46.186;9.024;2023-02-08T22:10:05;21.38;;;11.13;;
57609;SDS011;43435;46.186;9.024;2023-02-08T22:12:30;20.55;;;10.70;;
57609;SDS011;43435;46.186;9.024;2023-02-08T22:14:55;20.53;;;11.33;;
57609;SDS011;43435;46.186;9.024;2023-02-08T22:17:20;26.07;;;11.57;;
57609;SDS011;43435;46.186;9.024;2023-02-08T22:19:46;19.38;;;10.70;;
57609;SDS011;43435;46.186;9.024;2023-02-08T22:22:11;22.80;;;11.45;;
57609;SDS011;43435;46.186;9.024;2023-02-08T22:24:36;22.73;;;11.03;;
57609;SDS011;43435;46.186;9.024;2023-02-08T22:27:01;23.60;;;10.90;;
57609;SDS011;43435;46.186;9.024;2023-02-08T22:29:27;19.88;;;11.25;;
57609;SDS011;43435;46.186;9.024;2023-02-08T22:31:52;18.52;;;10.15;;
57609;SDS011;43435;46.186;9.024;2023-02-08T22:34:17;20.77;;;10.27;;
57609;SDS011;43435;46.186;9.024;2023-02-08T22:36:43;19.05;;;10.52;;
57609;SDS011;43435;46.186;9.024;2023-02-08T22:39:09;20.63;;;11.57;;
57609;SDS011;43435;46.186;9.024;2023-02-08T22:41:34;20.37;;;11.83;;
57609;SDS011;43435;46.186;9.024;2023-02-08T22:43:59;17.00;;;10.50;;
57609;SDS011;43435;46.186;9.024;2023-02-08T22:46:24;21.63;;;12.17;;
57609;SDS011;43435;46.186;9.024;2023-02-08T22:51:24;19.98;;;11.18;;
57609;SDS011;43435;46.186;9.024;2023-02-08T22:53:49;22.00;;;10.53;;
57609;SDS011;43435;46.186;9.024;2023-02-08T22:56:15;19.88;;;10.32;;
57609;SDS011;43435;46.186;9.024;2023-02-08T22:58:41;19.27;;;9.75;;
57609;SDS011;43435;46.186;9.024;2023-02-08T23:01:09;22.00;;;10.67;;
57609;SDS011;43435;46.186;9.024;2023-02-08T23:03:35;17.98;;;10.05;;
57609;SDS011;43435;46.186;9.024;2023-02-08T23:06:02;19.52;;;11.15;;
57609;SDS011;43435;46.186;9.024;2023-02-08T23:08:28;20.92;;;12.27;;
57609;SDS011;43435;46.186;9.024;2023-02-08T23:10:57;19.70;;;9.73;;
57609;SDS011;43435;46.186;9.024;2023-02-08T23:13:22;21.40;;;10.52;;
57609;SDS011;43435;46.186;9.024;2023-02-08T23:15:47;18.47;;;10.07;;
57609;SDS011;43435;46.186;9.024;2023-02-08T23:18:12;20.80;;;12.17;;
